AAW1054 OMDB-OBBI
Flight info
| Callsign | AAW1054 |
|---|---|
| Flight time | 0h 52m |
| Altitude | 26000 |
| Route | NABIX P699 ORMID M556 ORDIG |
| Aircraft | A333/H-SDE3GHIJ2J3J5M1RVWXY/LB2D1 |
Departure
| Time | 2026-05-08 02:04 |
|---|---|
| Airport | Dubai International Airport (OMDB) |
Arrival
| Time | 2026-05-08 02:56 |
|---|---|
| Airport | Bahrain International Airport (OBBI) |
| Time | Latitude | Longitude | Altitude | Speed | Heading |
|---|---|---|---|---|---|
| 2026-05-08 01:14 | 25.26055 | 55.36490 | 26 ft | 0 kts | 31° |
| 2026-05-08 01:38 | 25.26037 | 55.36474 | 32 ft | 4 kts | 52° |
| 2026-05-08 01:38 | 25.26024 | 55.36449 | 32 ft | 4 kts | 75° |
| 2026-05-08 01:39 | 25.26020 | 55.36420 | 30 ft | 4 kts | 89° |
| 2026-05-08 01:39 | 25.26021 | 55.36390 | 30 ft | 4 kts | 101° |
| 2026-05-08 01:39 | 25.26026 | 55.36371 | 32 ft | 4 kts | 112° |
| 2026-05-08 01:39 | 25.26031 | 55.36359 | 32 ft | 1 kts | 121° |
| 2026-05-08 01:54 | 25.26028 | 55.36363 | 32 ft | 1 kts | 121° |
| 2026-05-08 01:55 | 25.26020 | 55.36379 | 30 ft | 3 kts | 121° |
| 2026-05-08 01:55 | 25.26006 | 55.36405 | 30 ft | 5 kts | 121° |
| 2026-05-08 01:55 | 25.25986 | 55.36441 | 28 ft | 6 kts | 121° |
| 2026-05-08 01:55 | 25.25961 | 55.36486 | 28 ft | 8 kts | 121° |
| 2026-05-08 01:56 | 25.25930 | 55.36542 | 29 ft | 9 kts | 121° |
| 2026-05-08 01:56 | 25.25895 | 55.36606 | 27 ft | 10 kts | 121° |
| 2026-05-08 01:56 | 25.25855 | 55.36678 | 30 ft | 12 kts | 121° |
| 2026-05-08 01:56 | 25.25811 | 55.36759 | 29 ft | 13 kts | 121° |
| 2026-05-08 01:57 | 25.25762 | 55.36847 | 30 ft | 14 kts | 121° |
| 2026-05-08 01:57 | 25.25710 | 55.36943 | 30 ft | 15 kts | 121° |
| 2026-05-08 01:57 | 25.25654 | 55.37044 | 30 ft | 16 kts | 121° |
| 2026-05-08 01:57 | 25.25595 | 55.37149 | 30 ft | 17 kts | 122° |
| 2026-05-08 01:58 | 25.25533 | 55.37259 | 31 ft | 17 kts | 121° |
| 2026-05-08 01:58 | 25.25469 | 55.37373 | 28 ft | 18 kts | 121° |
| 2026-05-08 01:58 | 25.25402 | 55.37495 | 30 ft | 19 kts | 121° |
| 2026-05-08 01:58 | 25.25334 | 55.37620 | 29 ft | 19 kts | 121° |
| 2026-05-08 01:59 | 25.25263 | 55.37746 | 29 ft | 19 kts | 121° |
| 2026-05-08 01:59 | 25.25194 | 55.37872 | 30 ft | 19 kts | 121° |
| 2026-05-08 01:59 | 25.25124 | 55.38000 | 30 ft | 19 kts | 122° |
| 2026-05-08 01:59 | 25.25053 | 55.38125 | 30 ft | 19 kts | 122° |
| 2026-05-08 02:00 | 25.25000 | 55.38221 | 29 ft | 13 kts | 127° |
| 2026-05-08 02:00 | 25.24923 | 55.38231 | 28 ft | 11 kts | 205° |
| 2026-05-08 02:00 | 25.24866 | 55.38195 | 29 ft | 9 kts | 210° |
| 2026-05-08 02:00 | 25.24855 | 55.38188 | 30 ft | 0 kts | 207° |
| 2026-05-08 02:01 | 25.24853 | 55.38187 | 30 ft | 1 kts | 207° |
| 2026-05-08 02:01 | 25.24841 | 55.38180 | 31 ft | 3 kts | 208° |
| 2026-05-08 02:02 | 25.24820 | 55.38168 | 30 ft | 4 kts | 208° |
| 2026-05-08 02:02 | 25.24790 | 55.38147 | 29 ft | 6 kts | 216° |
| 2026-05-08 02:02 | 25.24773 | 55.38109 | 30 ft | 6 kts | 264° |
| 2026-05-08 02:02 | 25.24786 | 55.38064 | 30 ft | 7 kts | 297° |
| 2026-05-08 02:03 | 25.24794 | 55.38048 | 29 ft | 1 kts | 301° |
| 2026-05-08 02:03 | 25.24838 | 55.37969 | 29 ft | 26 kts | 301° |
| 2026-05-08 02:03 | 25.25025 | 55.37630 | 30 ft | 90 kts | 301° |
| 2026-05-08 02:03 | 25.25495 | 55.36778 | 35 ft | 168 kts | 300° |
| 2026-05-08 02:04 | 25.26222 | 55.35547 | 568 ft | 210 kts | 302° |
| 2026-05-08 02:04 | 25.27064 | 55.34086 | 1378 ft | 239 kts | 301° |
| 2026-05-08 02:04 | 25.27966 | 55.32468 | 2352 ft | 247 kts | 300° |
| 2026-05-08 02:04 | 25.28817 | 55.30818 | 2994 ft | 248 kts | 293° |
| 2026-05-08 02:05 | 25.29145 | 55.29006 | 3916 ft | 237 kts | 264° |
| 2026-05-08 02:05 | 25.28698 | 55.27290 | 4861 ft | 232 kts | 248° |
| 2026-05-08 02:05 | 25.28022 | 55.25657 | 5622 ft | 236 kts | 245° |
| 2026-05-08 02:05 | 25.27297 | 55.24004 | 6316 ft | 241 kts | 245° |
| 2026-05-08 02:06 | 25.26572 | 55.22348 | 7036 ft | 244 kts | 245° |
| 2026-05-08 02:06 | 25.25833 | 55.20638 | 7792 ft | 249 kts | 245° |
| 2026-05-08 02:06 | 25.25093 | 55.18914 | 8599 ft | 250 kts | 244° |
| 2026-05-08 02:06 | 25.24413 | 55.17293 | 9323 ft | 254 kts | 247° |
| 2026-05-08 02:07 | 25.23918 | 55.15387 | 9955 ft | 266 kts | 257° |
| 2026-05-08 02:07 | 25.23595 | 55.13280 | 10269 ft | 289 kts | 260° |
| 2026-05-08 02:07 | 25.23294 | 55.11009 | 10551 ft | 311 kts | 261° |
| 2026-05-08 02:07 | 25.22973 | 55.08558 | 10833 ft | 332 kts | 260° |
| 2026-05-08 02:08 | 25.22628 | 55.05969 | 11177 ft | 348 kts | 260° |
| 2026-05-08 02:08 | 25.22271 | 55.03326 | 11705 ft | 357 kts | 260° |
| 2026-05-08 02:08 | 25.21900 | 55.00595 | 12354 ft | 362 kts | 260° |
| 2026-05-08 02:08 | 25.21522 | 54.97827 | 13064 ft | 366 kts | 260° |
| 2026-05-08 02:09 | 25.21155 | 54.95022 | 13726 ft | 372 kts | 262° |
| 2026-05-08 02:09 | 25.20907 | 54.92165 | 14334 ft | 376 kts | 264° |
| 2026-05-08 02:09 | 25.20700 | 54.89273 | 15024 ft | 378 kts | 264° |
| 2026-05-08 02:09 | 25.20497 | 54.86362 | 15700 ft | 381 kts | 264° |
| 2026-05-08 02:10 | 25.20291 | 54.83438 | 16366 ft | 384 kts | 264° |
| 2026-05-08 02:10 | 25.20079 | 54.80476 | 17020 ft | 387 kts | 264° |
| 2026-05-08 02:10 | 25.19879 | 54.77496 | 17685 ft | 391 kts | 266° |
| 2026-05-08 02:10 | 25.19905 | 54.74481 | 18308 ft | 394 kts | 271° |
| 2026-05-08 02:11 | 25.20066 | 54.71443 | 18850 ft | 398 kts | 272° |
| 2026-05-08 02:11 | 25.20251 | 54.68391 | 19424 ft | 399 kts | 272° |
| 2026-05-08 02:11 | 25.20436 | 54.65318 | 20002 ft | 401 kts | 272° |
| 2026-05-08 02:11 | 25.20617 | 54.62273 | 20571 ft | 403 kts | 272° |
| 2026-05-08 02:12 | 25.20798 | 54.59176 | 21117 ft | 405 kts | 272° |
| 2026-05-08 02:12 | 25.20979 | 54.56060 | 21678 ft | 407 kts | 272° |
| 2026-05-08 02:12 | 25.21276 | 54.52932 | 22219 ft | 411 kts | 278° |
| 2026-05-08 02:12 | 25.21860 | 54.49824 | 22758 ft | 414 kts | 282° |
| 2026-05-08 02:13 | 25.22586 | 54.46741 | 23299 ft | 416 kts | 284° |
| 2026-05-08 02:13 | 25.23384 | 54.43654 | 23731 ft | 419 kts | 284° |
| 2026-05-08 02:13 | 25.24195 | 54.40603 | 24160 ft | 420 kts | 284° |
| 2026-05-08 02:13 | 25.25019 | 54.37496 | 24602 ft | 422 kts | 284° |
| 2026-05-08 02:14 | 25.25834 | 54.34376 | 25042 ft | 423 kts | 284° |
| 2026-05-08 02:14 | 25.26639 | 54.31242 | 25481 ft | 425 kts | 284° |
| 2026-05-08 02:14 | 25.27431 | 54.28098 | 25741 ft | 426 kts | 283° |
| 2026-05-08 02:14 | 25.28209 | 54.24971 | 25799 ft | 417 kts | 283° |
| 2026-05-08 02:15 | 25.28968 | 54.21906 | 25804 ft | 412 kts | 283° |
| 2026-05-08 02:15 | 25.29719 | 54.18857 | 25804 ft | 410 kts | 283° |
| 2026-05-08 02:15 | 25.30468 | 54.15816 | 25805 ft | 410 kts | 283° |
| 2026-05-08 02:15 | 25.31202 | 54.12774 | 25804 ft | 410 kts | 282° |
| 2026-05-08 02:16 | 25.31886 | 54.09716 | 25804 ft | 410 kts | 281° |
| 2026-05-08 02:16 | 25.32518 | 54.06742 | 25804 ft | 410 kts | 281° |
| 2026-05-08 02:16 | 25.33157 | 54.03674 | 25807 ft | 410 kts | 281° |
| 2026-05-08 02:16 | 25.33793 | 54.00602 | 25807 ft | 410 kts | 281° |
| 2026-05-08 02:17 | 25.34430 | 53.97535 | 25807 ft | 410 kts | 281° |
| 2026-05-08 02:17 | 25.35064 | 53.94494 | 25807 ft | 410 kts | 281° |
| 2026-05-08 02:17 | 25.35708 | 53.91424 | 25807 ft | 410 kts | 281° |
| 2026-05-08 02:17 | 25.36354 | 53.88347 | 25810 ft | 410 kts | 281° |
| 2026-05-08 02:18 | 25.37000 | 53.85278 | 25805 ft | 410 kts | 281° |
| 2026-05-08 02:18 | 25.37649 | 53.82199 | 25807 ft | 409 kts | 281° |
| 2026-05-08 02:18 | 25.38293 | 53.79138 | 25806 ft | 409 kts | 281° |
| 2026-05-08 02:18 | 25.38938 | 53.76070 | 25808 ft | 409 kts | 281° |
| 2026-05-08 02:19 | 25.39580 | 53.73010 | 25811 ft | 409 kts | 281° |
| 2026-05-08 02:19 | 25.40224 | 53.69938 | 25809 ft | 409 kts | 281° |
| 2026-05-08 02:19 | 25.40866 | 53.66874 | 25803 ft | 409 kts | 281° |
| 2026-05-08 02:19 | 25.41500 | 53.63845 | 25805 ft | 409 kts | 281° |
| 2026-05-08 02:20 | 25.42142 | 53.60773 | 25805 ft | 409 kts | 281° |
| 2026-05-08 02:20 | 25.42783 | 53.57699 | 25805 ft | 409 kts | 281° |
| 2026-05-08 02:20 | 25.43423 | 53.54630 | 25804 ft | 409 kts | 281° |
| 2026-05-08 02:20 | 25.44061 | 53.51563 | 25804 ft | 409 kts | 281° |
| 2026-05-08 02:21 | 25.44692 | 53.48530 | 25802 ft | 409 kts | 281° |
| 2026-05-08 02:21 | 25.45328 | 53.45465 | 25801 ft | 409 kts | 281° |
| 2026-05-08 02:21 | 25.45965 | 53.42398 | 25803 ft | 409 kts | 281° |
| 2026-05-08 02:21 | 25.46602 | 53.39325 | 25805 ft | 409 kts | 281° |
| 2026-05-08 02:22 | 25.47237 | 53.36258 | 25806 ft | 409 kts | 280° |
| 2026-05-08 02:22 | 25.47870 | 53.33197 | 25806 ft | 408 kts | 280° |
| 2026-05-08 02:22 | 25.48503 | 53.30132 | 25801 ft | 408 kts | 280° |
| 2026-05-08 02:22 | 25.49137 | 53.27062 | 25807 ft | 408 kts | 280° |
| 2026-05-08 02:23 | 25.49768 | 53.24001 | 25808 ft | 408 kts | 280° |
| 2026-05-08 02:23 | 25.50399 | 53.20932 | 25806 ft | 408 kts | 280° |
| 2026-05-08 02:23 | 25.51028 | 53.17868 | 25807 ft | 408 kts | 280° |
| 2026-05-08 02:23 | 25.51647 | 53.14846 | 25810 ft | 408 kts | 280° |
| 2026-05-08 02:24 | 25.52274 | 53.11784 | 25806 ft | 408 kts | 280° |
| 2026-05-08 02:24 | 25.52901 | 53.08722 | 25807 ft | 408 kts | 280° |
| 2026-05-08 02:24 | 25.53527 | 53.05654 | 25807 ft | 408 kts | 280° |
| 2026-05-08 02:24 | 25.54154 | 53.02583 | 25808 ft | 408 kts | 280° |
| 2026-05-08 02:25 | 25.54779 | 52.99519 | 25807 ft | 408 kts | 280° |
| 2026-05-08 02:25 | 25.55403 | 52.96453 | 25808 ft | 408 kts | 280° |
| 2026-05-08 02:25 | 25.56034 | 52.93391 | 25794 ft | 408 kts | 282° |
| 2026-05-08 02:25 | 25.56971 | 52.90405 | 25809 ft | 412 kts | 291° |
| 2026-05-08 02:26 | 25.58186 | 52.87528 | 25813 ft | 412 kts | 293° |
| 2026-05-08 02:26 | 25.59473 | 52.84732 | 25800 ft | 412 kts | 295° |
| 2026-05-08 02:26 | 25.60827 | 52.81929 | 25817 ft | 413 kts | 295° |
| 2026-05-08 02:26 | 25.62203 | 52.79141 | 25803 ft | 413 kts | 295° |
| 2026-05-08 02:27 | 25.63590 | 52.76344 | 25821 ft | 413 kts | 295° |
| 2026-05-08 02:27 | 25.64970 | 52.73555 | 25807 ft | 412 kts | 295° |
| 2026-05-08 02:27 | 25.66342 | 52.70765 | 25821 ft | 412 kts | 295° |
| 2026-05-08 02:27 | 25.67249 | 52.68914 | 25805 ft | 412 kts | 295° |
| 2026-05-08 02:28 | 25.68611 | 52.66121 | 25820 ft | 412 kts | 295° |
| 2026-05-08 02:28 | 25.69974 | 52.63320 | 25801 ft | 412 kts | 295° |
| 2026-05-08 02:28 | 25.71335 | 52.60518 | 25816 ft | 412 kts | 295° |
| 2026-05-08 02:28 | 25.72695 | 52.57714 | 25801 ft | 412 kts | 295° |
| 2026-05-08 02:29 | 25.74053 | 52.54913 | 25819 ft | 412 kts | 295° |
| 2026-05-08 02:29 | 25.75395 | 52.52143 | 25809 ft | 412 kts | 295° |
| 2026-05-08 02:29 | 25.76738 | 52.49339 | 25812 ft | 412 kts | 294° |
| 2026-05-08 02:29 | 25.78061 | 52.46523 | 25808 ft | 411 kts | 294° |
| 2026-05-08 02:30 | 25.79373 | 52.43699 | 25824 ft | 411 kts | 294° |
| 2026-05-08 02:30 | 25.80679 | 52.40876 | 25814 ft | 411 kts | 294° |
| 2026-05-08 02:30 | 25.81984 | 52.38054 | 25801 ft | 411 kts | 294° |
| 2026-05-08 02:30 | 25.83296 | 52.35217 | 25820 ft | 411 kts | 294° |
| 2026-05-08 02:31 | 25.84599 | 52.32401 | 25808 ft | 411 kts | 294° |
| 2026-05-08 02:31 | 25.85913 | 52.29573 | 25807 ft | 411 kts | 295° |
| 2026-05-08 02:31 | 25.87470 | 52.26894 | 25807 ft | 415 kts | 304° |
| 2026-05-08 02:31 | 25.89300 | 52.24408 | 25806 ft | 417 kts | 307° |
| 2026-05-08 02:32 | 25.91189 | 52.22011 | 25809 ft | 417 kts | 308° |
| 2026-05-08 02:32 | 25.93147 | 52.19626 | 25811 ft | 418 kts | 309° |
| 2026-05-08 02:32 | 25.95131 | 52.17252 | 25807 ft | 418 kts | 309° |
| 2026-05-08 02:32 | 25.97116 | 52.14888 | 25810 ft | 418 kts | 309° |
| 2026-05-08 02:33 | 25.99102 | 52.12518 | 25805 ft | 418 kts | 309° |
| 2026-05-08 02:33 | 26.01078 | 52.10148 | 25813 ft | 418 kts | 309° |
| 2026-05-08 02:33 | 26.03050 | 52.07773 | 25809 ft | 418 kts | 309° |
| 2026-05-08 02:33 | 26.04936 | 52.05494 | 25809 ft | 418 kts | 309° |
| 2026-05-08 02:34 | 26.06864 | 52.03161 | 25813 ft | 418 kts | 309° |
| 2026-05-08 02:34 | 26.08804 | 52.00810 | 25807 ft | 418 kts | 309° |
| 2026-05-08 02:34 | 26.10772 | 51.98424 | 25808 ft | 419 kts | 309° |
| 2026-05-08 02:34 | 26.12746 | 51.96030 | 25810 ft | 419 kts | 309° |
| 2026-05-08 02:35 | 26.14718 | 51.93638 | 25808 ft | 419 kts | 309° |
| 2026-05-08 02:35 | 26.16689 | 51.91245 | 25806 ft | 419 kts | 309° |
| 2026-05-08 02:35 | 26.18660 | 51.88853 | 25808 ft | 419 kts | 309° |
| 2026-05-08 02:35 | 26.20628 | 51.86463 | 25810 ft | 419 kts | 308° |
| 2026-05-08 02:36 | 26.22597 | 51.84069 | 25809 ft | 419 kts | 309° |
| 2026-05-08 02:36 | 26.24502 | 51.81590 | 25684 ft | 423 kts | 302° |
| 2026-05-08 02:36 | 26.26078 | 51.78801 | 25003 ft | 427 kts | 296° |
| 2026-05-08 02:36 | 26.27522 | 51.75877 | 24036 ft | 435 kts | 294° |
| 2026-05-08 02:37 | 26.28795 | 51.73084 | 23250 ft | 440 kts | 293° |
| 2026-05-08 02:37 | 26.30140 | 51.70021 | 22538 ft | 438 kts | 293° |
| 2026-05-08 02:37 | 26.31465 | 51.66970 | 21914 ft | 434 kts | 293° |
| 2026-05-08 02:37 | 26.32779 | 51.63952 | 21273 ft | 431 kts | 293° |
| 2026-05-08 02:38 | 26.34093 | 51.60956 | 20666 ft | 427 kts | 294° |
| 2026-05-08 02:38 | 26.35404 | 51.57989 | 20051 ft | 424 kts | 294° |
| 2026-05-08 02:38 | 26.36705 | 51.55054 | 19499 ft | 420 kts | 294° |
| 2026-05-08 02:38 | 26.37870 | 51.52125 | 18954 ft | 415 kts | 290° |
| 2026-05-08 02:39 | 26.38918 | 51.49145 | 18477 ft | 409 kts | 289° |
| 2026-05-08 02:39 | 26.39901 | 51.46189 | 17970 ft | 404 kts | 287° |
| 2026-05-08 02:39 | 26.40843 | 51.43259 | 17429 ft | 398 kts | 287° |
| 2026-05-08 02:39 | 26.41759 | 51.40355 | 16953 ft | 392 kts | 288° |
| 2026-05-08 02:40 | 26.42656 | 51.37498 | 16450 ft | 387 kts | 287° |
| 2026-05-08 02:40 | 26.43542 | 51.34686 | 15981 ft | 382 kts | 288° |
| 2026-05-08 02:40 | 26.44423 | 51.31911 | 15509 ft | 377 kts | 289° |
| 2026-05-08 02:40 | 26.45240 | 51.29148 | 15025 ft | 372 kts | 283° |
| 2026-05-08 02:41 | 26.45489 | 51.26304 | 14576 ft | 367 kts | 265° |
| 2026-05-08 02:41 | 26.44906 | 51.23563 | 14165 ft | 362 kts | 250° |
| 2026-05-08 02:41 | 26.43996 | 51.21006 | 13833 ft | 356 kts | 248° |
| 2026-05-08 02:41 | 26.43035 | 51.18465 | 13369 ft | 355 kts | 247° |
| 2026-05-08 02:42 | 26.42077 | 51.15936 | 12904 ft | 352 kts | 247° |
| 2026-05-08 02:42 | 26.41136 | 51.13432 | 12455 ft | 349 kts | 247° |
| 2026-05-08 02:42 | 26.40227 | 51.11003 | 12027 ft | 347 kts | 246° |
| 2026-05-08 02:42 | 26.39302 | 51.08527 | 11578 ft | 344 kts | 247° |
| 2026-05-08 02:43 | 26.38401 | 51.06107 | 11437 ft | 331 kts | 246° |
| 2026-05-08 02:43 | 26.37585 | 51.03917 | 11335 ft | 317 kts | 246° |
| 2026-05-08 02:43 | 26.36757 | 51.01691 | 11216 ft | 305 kts | 246° |
| 2026-05-08 02:43 | 26.35960 | 50.99552 | 11075 ft | 295 kts | 245° |
| 2026-05-08 02:44 | 26.35192 | 50.97492 | 10902 ft | 289 kts | 245° |
| 2026-05-08 02:44 | 26.34418 | 50.95418 | 10560 ft | 290 kts | 246° |
| 2026-05-08 02:44 | 26.33669 | 50.93323 | 10223 ft | 290 kts | 251° |
| 2026-05-08 02:44 | 26.33375 | 50.91105 | 9921 ft | 293 kts | 271° |
| 2026-05-08 02:45 | 26.33933 | 50.88917 | 9602 ft | 297 kts | 298° |
| 2026-05-08 02:45 | 26.35300 | 50.87224 | 9274 ft | 296 kts | 323° |
| 2026-05-08 02:45 | 26.37055 | 50.86035 | 8924 ft | 295 kts | 327° |
| 2026-05-08 02:45 | 26.38605 | 50.84630 | 8596 ft | 291 kts | 310° |
| 2026-05-08 02:46 | 26.39814 | 50.82840 | 8297 ft | 287 kts | 303° |
| 2026-05-08 02:46 | 26.40896 | 50.81011 | 7979 ft | 284 kts | 302° |
| 2026-05-08 02:46 | 26.41862 | 50.79152 | 7870 ft | 279 kts | 291° |
| 2026-05-08 02:46 | 26.42242 | 50.77034 | 7762 ft | 276 kts | 266° |
| 2026-05-08 02:47 | 26.41729 | 50.75032 | 7656 ft | 273 kts | 238° |
| 2026-05-08 02:47 | 26.40444 | 50.73503 | 7526 ft | 272 kts | 215° |
| 2026-05-08 02:47 | 26.38799 | 50.72457 | 7252 ft | 273 kts | 200° |
| 2026-05-08 02:47 | 26.36930 | 50.72248 | 6934 ft | 273 kts | 168° |
| 2026-05-08 02:48 | 26.35266 | 50.73222 | 6638 ft | 272 kts | 134° |
| 2026-05-08 02:48 | 26.34152 | 50.74900 | 6369 ft | 269 kts | 121° |
| 2026-05-08 02:48 | 26.33189 | 50.76699 | 6065 ft | 269 kts | 120° |
| 2026-05-08 02:48 | 26.32244 | 50.78466 | 5784 ft | 269 kts | 120° |
| 2026-05-08 02:49 | 26.31266 | 50.80243 | 5502 ft | 269 kts | 120° |
| 2026-05-08 02:49 | 26.30273 | 50.82011 | 5216 ft | 268 kts | 119° |
| 2026-05-08 02:49 | 26.29273 | 50.83771 | 4939 ft | 269 kts | 120° |
| 2026-05-08 02:49 | 26.28276 | 50.85511 | 4644 ft | 268 kts | 120° |
| 2026-05-08 02:50 | 26.27271 | 50.87256 | 4353 ft | 267 kts | 120° |
| 2026-05-08 02:50 | 26.26231 | 50.88959 | 4122 ft | 265 kts | 125° |
| 2026-05-08 02:50 | 26.24721 | 50.90127 | 3839 ft | 270 kts | 162° |
| 2026-05-08 02:50 | 26.22870 | 50.90170 | 3519 ft | 270 kts | 198° |
| 2026-05-08 02:51 | 26.21331 | 50.89065 | 3222 ft | 262 kts | 235° |
| 2026-05-08 02:51 | 26.20681 | 50.87289 | 2995 ft | 246 kts | 270° |
| 2026-05-08 02:51 | 26.20644 | 50.85401 | 2768 ft | 244 kts | 276° |
| 2026-05-08 02:51 | 26.20627 | 50.83496 | 2516 ft | 247 kts | 274° |
| 2026-05-08 02:52 | 26.20502 | 50.81605 | 2371 ft | 243 kts | 266° |
| 2026-05-08 02:52 | 26.19878 | 50.79859 | 2159 ft | 241 kts | 248° |
| 2026-05-08 02:52 | 26.19338 | 50.78186 | 1813 ft | 219 kts | 277° |
| 2026-05-08 02:52 | 26.19563 | 50.76634 | 1627 ft | 190 kts | 298° |
| 2026-05-08 02:53 | 26.20156 | 50.75410 | 1577 ft | 177 kts | 313° |
| 2026-05-08 02:53 | 26.20803 | 50.74320 | 1568 ft | 172 kts | 313° |
| 2026-05-08 02:53 | 26.21438 | 50.73217 | 1558 ft | 165 kts | 312° |
| 2026-05-08 02:53 | 26.22014 | 50.72199 | 1549 ft | 145 kts | 313° |
| 2026-05-08 02:54 | 26.22525 | 50.71301 | 1409 ft | 131 kts | 314° |
| 2026-05-08 02:54 | 26.23010 | 50.70466 | 1244 ft | 126 kts | 314° |
| 2026-05-08 02:54 | 26.23488 | 50.69641 | 1076 ft | 128 kts | 314° |
| 2026-05-08 02:54 | 26.23970 | 50.68805 | 912 ft | 128 kts | 310° |
| 2026-05-08 02:55 | 26.24420 | 50.67999 | 808 ft | 120 kts | 308° |
| 2026-05-08 02:55 | 26.25327 | 50.66425 | 426 ft | 120 kts | 305° |
| 2026-05-08 02:55 | 26.25771 | 50.65653 | 219 ft | 116 kts | 304° |
| 2026-05-08 02:56 | 26.26205 | 50.64891 | 57 ft | 118 kts | 303° |
| 2026-05-08 02:56 | 26.26629 | 50.64155 | 17 ft | 88 kts | 302° |
| 2026-05-08 02:56 | 26.26818 | 50.63825 | 18 ft | 41 kts | 303° |
| 2026-05-08 02:56 | 26.26944 | 50.63608 | 16 ft | 29 kts | 303° |
| 2026-05-08 02:57 | 26.27076 | 50.63497 | 16 ft | 22 kts | 351° |
| 2026-05-08 02:57 | 26.27212 | 50.63462 | 17 ft | 20 kts | 346° |
| 2026-05-08 02:57 | 26.27293 | 50.63480 | 19 ft | 10 kts | 35° |
| 2026-05-08 02:57 | 26.27354 | 50.63528 | 18 ft | 12 kts | 34° |
| 2026-05-08 02:58 | 26.27428 | 50.63582 | 18 ft | 13 kts | 31° |
| 2026-05-08 02:58 | 26.27480 | 50.63564 | 18 ft | 0 kts | 306° |
| 2026-05-08 02:58 | 26.27484 | 50.63559 | 18 ft | 2 kts | 309° |
| 2026-05-08 02:58 | 26.27488 | 50.63553 | 18 ft | 0 kts | 309° |